sensor_id;sensor_type;location;lat;lon;timestamp;pressure;altitude;pressure_sealevel;temperature;humidity
20228;BME280;12195;55.790;37.572;2023-04-26T00:00:34;98503.76;;;12.98;72.79
20228;BME280;12195;55.790;37.572;2023-04-26T00:03:06;98499.80;;;12.93;72.47
20228;BME280;12195;55.790;37.572;2023-04-26T00:05:39;98503.08;;;12.85;72.83
20228;BME280;12195;55.790;37.572;2023-04-26T00:08:13;98491.25;;;12.80;73.12
20228;BME280;12195;55.790;37.572;2023-04-26T00:10:45;98487.32;;;12.74;73.44
20228;BME280;12195;55.790;37.572;2023-04-26T00:13:17;98475.64;;;12.67;73.53
20228;BME280;12195;55.790;37.572;2023-04-26T00:15:49;98481.40;;;12.61;74.23
20228;BME280;12195;55.790;37.572;2023-04-26T00:18:21;98483.19;;;12.61;73.86
20228;BME280;12195;55.790;37.572;2023-04-26T00:20:54;98477.34;;;12.57;74.32
20228;BME280;12195;55.790;37.572;2023-04-26T00:23:26;98470.54;;;12.55;74.52
20228;BME280;12195;55.790;37.572;2023-04-26T00:25:58;98468.16;;;12.52;75.13
20228;BME280;12195;55.790;37.572;2023-04-26T00:28:30;98476.05;;;12.52;74.77
20228;BME280;12195;55.790;37.572;2023-04-26T00:31:02;98470.21;;;12.48;74.95
20228;BME280;12195;55.790;37.572;2023-04-26T00:33:35;98475.14;;;12.42;75.20
20228;BME280;12195;55.790;37.572;2023-04-26T00:36:07;98469.42;;;12.37;76.27
20228;BME280;12195;55.790;37.572;2023-04-26T00:38:39;98467.03;;;12.34;76.36
20228;BME280;12195;55.790;37.572;2023-04-26T00:41:12;98461.89;;;12.32;76.36
20228;BME280;12195;55.790;37.572;2023-04-26T00:43:44;98463.95;;;12.29;76.39
20228;BME280;12195;55.790;37.572;2023-04-26T00:46:16;98459.77;;;12.26;76.96
20228;BME280;12195;55.790;37.572;2023-04-26T00:48:49;98452.70;;;12.27;76.75
20228;BME280;12195;55.790;37.572;2023-04-26T00:51:22;98455.33;;;12.27;77.33
20228;BME280;12195;55.790;37.572;2023-04-26T00:53:54;98448.16;;;12.29;76.98
20228;BME280;12195;55.790;37.572;2023-04-26T00:56:27;98438.45;;;12.29;76.43
20228;BME280;12195;55.790;37.572;2023-04-26T00:59:00;98435.81;;;12.29;76.40
20228;BME280;12195;55.790;37.572;2023-04-26T01:01:34;98435.24;;;12.26;76.94
20228;BME280;12195;55.790;37.572;2023-04-26T01:04:06;98432.85;;;12.23;77.16
20228;BME280;12195;55.790;37.572;2023-04-26T01:06:39;98426.50;;;12.25;76.91
20228;BME280;12195;55.790;37.572;2023-04-26T01:09:11;98427.59;;;12.23;77.08
20228;BME280;12195;55.790;37.572;2023-04-26T01:11:46;98413.46;;;12.24;77.23
20228;BME280;12195;55.790;37.572;2023-04-26T01:14:19;98419.45;;;12.26;77.21
20228;BME280;12195;55.790;37.572;2023-04-26T01:16:51;98422.78;;;12.28;77.27
20228;BME280;12195;55.790;37.572;2023-04-26T01:19:23;98402.45;;;12.30;77.08
20228;BME280;12195;55.790;37.572;2023-04-26T01:21:56;98416.91;;;12.35;76.73
20228;BME280;12195;55.790;37.572;2023-04-26T01:24:28;98409.01;;;12.35;76.61
20228;BME280;12195;55.790;37.572;2023-04-26T01:27:00;98403.74;;;12.35;76.73
20228;BME280;12195;55.790;37.572;2023-04-26T01:29:34;98405.66;;;12.33;77.07
20228;BME280;12195;55.790;37.572;2023-04-26T01:32:06;98395.13;;;12.33;77.23
20228;BME280;12195;55.790;37.572;2023-04-26T01:34:38;98397.52;;;12.36;77.02
20228;BME280;12195;55.790;37.572;2023-04-26T01:37:20;98389.37;;;12.39;76.83
20228;BME280;12195;55.790;37.572;2023-04-26T01:39:53;98388.64;;;12.37;77.01
20228;BME280;12195;55.790;37.572;2023-04-26T01:42:25;98388.77;;;12.36;77.16
20228;BME280;12195;55.790;37.572;2023-04-26T01:44:57;98382.69;;;12.35;76.87
20228;BME280;12195;55.790;37.572;2023-04-26T01:47:32;98384.34;;;12.36;76.90
20228;BME280;12195;55.790;37.572;2023-04-26T01:50:05;98374.91;;;12.34;76.97
20228;BME280;12195;55.790;37.572;2023-04-26T01:52:37;98376.70;;;12.33;76.97
20228;BME280;12195;55.790;37.572;2023-04-26T01:55:09;98370.02;;;12.29;76.83
20228;BME280;12195;55.790;37.572;2023-04-26T01:57:41;98368.88;;;12.22;77.29
20228;BME280;12195;55.790;37.572;2023-04-26T02:00:14;98366.61;;;12.18;77.66
20228;BME280;12195;55.790;37.572;2023-04-26T02:02:49;98366.86;;;12.15;78.01
20228;BME280;12195;55.790;37.572;2023-04-26T02:05:21;98361.02;;;12.11;78.67
20228;BME280;12195;55.790;37.572;2023-04-26T02:07:54;98357.30;;;12.14;78.25
20228;BME280;12195;55.790;37.572;2023-04-26T02:10:26;98363.53;;;12.13;78.46
20228;BME280;12195;55.790;37.572;2023-04-26T02:12:58;98349.92;;;12.08;78.71
20228;BME280;12195;55.790;37.572;2023-04-26T02:15:31;98350.05;;;12.06;78.62
20228;BME280;12195;55.790;37.572;2023-04-26T02:18:03;98340.47;;;12.05;78.90
20228;BME280;12195;55.790;37.572;2023-04-26T02:20:42;98340.62;;;12.04;79.01
20228;BME280;12195;55.790;37.572;2023-04-26T02:23:13;98341.67;;;12.01;79.00
20228;BME280;12195;55.790;37.572;2023-04-26T02:25:47;98333.33;;;11.96;79.60
20228;BME280;12195;55.790;37.572;2023-04-26T02:28:19;98336.09;;;11.95;80.05
20228;BME280;12195;55.790;37.572;2023-04-26T02:30:51;98330.83;;;11.95;80.07
20228;BME280;12195;55.790;37.572;2023-04-26T02:33:24;98332.03;;;11.91;80.40
20228;BME280;12195;55.790;37.572;2023-04-26T02:35:56;98325.23;;;11.88;80.50
20228;BME280;12195;55.790;37.572;2023-04-26T02:38:28;98330.50;;;11.88;80.89
20228;BME280;12195;55.790;37.572;2023-04-26T02:41:01;98328.14;;;11.85;81.04
20228;BME280;12195;55.790;37.572;2023-04-26T02:43:34;98324.78;;;11.83;81.37
20228;BME280;12195;55.790;37.572;2023-04-26T02:46:07;98320.49;;;11.82;81.75
20228;BME280;12195;55.790;37.572;2023-04-26T02:48:39;98321.31;;;11.83;82.27
20228;BME280;12195;55.790;37.572;2023-04-26T02:51:12;98312.48;;;11.84;82.15
20228;BME280;12195;55.790;37.572;2023-04-26T02:53:44;98311.39;;;11.86;82.10
20228;BME280;12195;55.790;37.572;2023-04-26T02:56:16;98309.58;;;11.87;82.37
20228;BME280;12195;55.790;37.572;2023-04-26T02:58:49;98309.86;;;11.84;82.25
20228;BME280;12195;55.790;37.572;2023-04-26T03:01:22;98309.00;;;11.83;82.18
20228;BME280;12195;55.790;37.572;2023-04-26T03:03:54;98314.51;;;11.80;82.77
20228;BME280;12195;55.790;37.572;2023-04-26T03:06:28;98310.09;;;11.81;82.81
20228;BME280;12195;55.790;37.572;2023-04-26T03:09:01;98304.11;;;11.79;82.50
20228;BME280;12195;55.790;37.572;2023-04-26T03:11:35;98316.44;;;11.78;82.68
20228;BME280;12195;55.790;37.572;2023-04-26T03:14:07;98312.27;;;11.76;82.62
20228;BME280;12195;55.790;37.572;2023-04-26T03:16:43;98300.06;;;11.75;82.74
20228;BME280;12195;55.790;37.572;2023-04-26T03:19:16;98302.12;;;11.71;82.93
20228;BME280;12195;55.790;37.572;2023-04-26T03:21:48;98293.53;;;11.69;83.28
20228;BME280;12195;55.790;37.572;2023-04-26T03:24:21;98293.41;;;11.71;83.41
20228;BME280;12195;55.790;37.572;2023-04-26T03:26:53;98290.91;;;11.69;83.69
20228;BME280;12195;55.790;37.572;2023-04-26T03:29:25;98293.41;;;11.71;84.06
20228;BME280;12195;55.790;37.572;2023-04-26T03:31:58;98287.06;;;11.73;83.76
20228;BME280;12195;55.790;37.572;2023-04-26T03:34:30;98287.06;;;11.73;84.20
20228;BME280;12195;55.790;37.572;2023-04-26T03:37:02;98293.14;;;11.74;84.04
20228;BME280;12195;55.790;37.572;2023-04-26T03:39:35;98285.86;;;11.77;84.28
20228;BME280;12195;55.790;37.572;2023-04-26T03:42:08;98289.30;;;11.78;84.28
20228;BME280;12195;55.790;37.572;2023-04-26T03:44:40;98285.46;;;11.82;84.25
20228;BME280;12195;55.790;37.572;2023-04-26T03:47:13;98279.51;;;11.80;84.69
20228;BME280;12195;55.790;37.572;2023-04-26T03:49:46;98268.99;;;11.80;84.60
20228;BME280;12195;55.790;37.572;2023-04-26T03:52:18;98281.05;;;11.82;85.08
20228;BME280;12195;55.790;37.572;2023-04-26T03:54:51;98271.95;;;11.86;85.66
20228;BME280;12195;55.790;37.572;2023-04-26T03:57:23;98276.80;;;11.91;85.38
20228;BME280;12195;55.790;37.572;2023-04-26T03:59:56;98267.45;;;11.98;85.09
20228;BME280;12195;55.790;37.572;2023-04-26T04:02:29;98269.12;;;11.99;85.14
20228;BME280;12195;55.790;37.572;2023-04-26T04:05:01;98273.05;;;12.25;84.73
20228;BME280;12195;55.790;37.572;2023-04-26T04:07:34;98268.63;;;12.05;84.78
20228;BME280;12195;55.790;37.572;2023-04-26T04:10:06;98264.58;;;12.01;84.74
20228;BME280;12195;55.790;37.572;2023-04-26T04:12:42;98262.64;;;12.03;85.21
20228;BME280;12195;55.790;37.572;2023-04-26T04:15:14;98269.59;;;12.04;85.09
20228;BME280;12195;55.790;37.572;2023-04-26T04:17:49;98260.85;;;12.03;85.23
20228;BME280;12195;55.790;37.572;2023-04-26T04:20:22;98259.88;;;12.04;85.49
20228;BME280;12195;55.790;37.572;2023-04-26T04:22:56;98270.72;;;12.11;85.85
20228;BME280;12195;55.790;37.572;2023-04-26T04:25:29;98254.69;;;12.14;85.41
20228;BME280;12195;55.790;37.572;2023-04-26T04:28:03;98258.98;;;12.15;85.28
20228;BME280;12195;55.790;37.572;2023-04-26T04:30:36;98255.98;;;12.19;85.66
20228;BME280;12195;55.790;37.572;2023-04-26T04:33:08;98258.48;;;12.21;85.42
20228;BME280;12195;55.790;37.572;2023-04-26T04:35:41;98257.27;;;12.25;85.50
20228;BME280;12195;55.790;37.572;2023-04-26T04:38:14;98252.69;;;12.27;85.80
20228;BME280;12195;55.790;37.572;2023-04-26T04:40:48;98250.78;;;12.29;85.21
20228;BME280;12195;55.790;37.572;2023-04-26T04:43:20;98250.49;;;12.32;85.94
20228;BME280;12195;55.790;37.572;2023-04-26T04:45:53;98253.72;;;12.35;85.31
20228;BME280;12195;55.790;37.572;2023-04-26T04:48:26;98252.37;;;12.41;85.75
20228;BME280;12195;55.790;37.572;2023-04-26T04:50:58;98256.13;;;12.48;86.08
20228;BME280;12195;55.790;37.572;2023-04-26T04:53:32;98252.73;;;12.57;86.01
20228;BME280;12195;55.790;37.572;2023-04-26T04:56:05;98255.80;;;12.62;85.71
20228;BME280;12195;55.790;37.572;2023-04-26T04:58:38;98252.48;;;12.69;85.36
20228;BME280;12195;55.790;37.572;2023-04-26T05:01:11;98252.92;;;12.74;85.11
20228;BME280;12195;55.790;37.572;2023-04-26T05:03:48;98246.84;;;12.83;85.10
20228;BME280;12195;55.790;37.572;2023-04-26T05:06:21;98246.53;;;12.97;85.81
20228;BME280;12195;55.790;37.572;2023-04-26T05:08:57;98254.47;;;13.07;84.92
20228;BME280;12195;55.790;37.572;2023-04-26T05:11:30;98247.27;;;13.18;85.30
20228;BME280;12195;55.790;37.572;2023-04-26T05:14:03;98248.27;;;13.27;84.80
20228;BME280;12195;55.790;37.572;2023-04-26T05:16:36;98243.16;;;13.35;83.94
20228;BME280;12195;55.790;37.572;2023-04-26T05:19:08;98252.45;;;13.39;83.89
20228;BME280;12195;55.790;37.572;2023-04-26T05:21:41;98240.09;;;13.39;83.27
20228;BME280;12195;55.790;37.572;2023-04-26T05:24:14;98252.16;;;13.42;83.67
20228;BME280;12195;55.790;37.572;2023-04-26T05:26:46;98245.09;;;13.42;83.26
20228;BME280;12195;55.790;37.572;2023-04-26T05:29:37;98237.05;;;13.44;83.52
20228;BME280;12195;55.790;37.572;2023-04-26T05:32:11;98247.47;;;13.45;82.78
20228;BME280;12195;55.790;37.572;2023-04-26T05:34:45;98243.98;;;13.45;82.19
20228;BME280;12195;55.790;37.572;2023-04-26T05:37:19;98248.58;;;13.43;82.67
20228;BME280;12195;55.790;37.572;2023-04-26T05:39:51;98246.08;;;13.41;82.48
20228;BME280;12195;55.790;37.572;2023-04-26T05:42:24;98243.30;;;13.43;82.09
20228;BME280;12195;55.790;37.572;2023-04-26T05:44:59;98247.47;;;13.45;82.96
20228;BME280;12195;55.790;37.572;2023-04-26T05:47:32;98243.72;;;13.48;82.22
20228;BME280;12195;55.790;37.572;2023-04-26T05:50:05;98240.78;;;13.51;82.28
20228;BME280;12195;55.790;37.572;2023-04-26T05:52:38;98242.34;;;13.53;81.55
20228;BME280;12195;55.790;37.572;2023-04-26T05:55:10;98243.42;;;13.51;81.37
20228;BME280;12195;55.790;37.572;2023-04-26T05:57:43;98243.28;;;13.52;81.62
20228;BME280;12195;55.790;37.572;2023-04-26T06:00:16;98250.80;;;13.57;81.50
20228;BME280;12195;55.790;37.572;2023-04-26T06:02:50;98243.56;;;13.59;81.77
20228;BME280;12195;55.790;37.572;2023-04-26T06:05:23;98250.40;;;13.61;81.96
20228;BME280;12195;55.790;37.572;2023-04-26T06:07:55;98250.80;;;13.57;81.00
20228;BME280;12195;55.790;37.572;2023-04-26T06:10:28;98245.92;;;13.52;81.01
20228;BME280;12195;55.790;37.572;2023-04-26T06:13:01;98252.73;;;13.45;80.67
20228;BME280;12195;55.790;37.572;2023-04-26T06:15:35;98256.63;;;13.41;80.69
20228;BME280;12195;55.790;37.572;2023-04-26T06:18:08;98250.50;;;13.41;81.40
20228;BME280;12195;55.790;37.572;2023-04-26T06:20:40;98249.39;;;13.43;81.61
20228;BME280;12195;55.790;37.572;2023-04-26T06:23:14;98252.31;;;13.50;81.81
20228;BME280;12195;55.790;37.572;2023-04-26T06:25:48;98256.20;;;13.55;81.09
20228;BME280;12195;55.790;37.572;2023-04-26T06:28:21;98257.86;;;13.56;82.22
20228;BME280;12195;55.790;37.572;2023-04-26T06:30:53;98258.58;;;13.58;81.43
20228;BME280;12195;55.790;37.572;2023-04-26T06:33:26;98259.95;;;13.53;81.34
20228;BME280;12195;55.790;37.572;2023-04-26T06:35:58;98262.99;;;13.48;81.32
20228;BME280;12195;55.790;37.572;2023-04-26T06:38:31;98258.14;;;13.44;80.89
20228;BME280;12195;55.790;37.572;2023-04-26T06:41:03;98261.19;;;13.39;81.28
20228;BME280;12195;55.790;37.572;2023-04-26T06:43:36;98264.08;;;13.36;81.48
20228;BME280;12195;55.790;37.572;2023-04-26T06:46:10;98266.32;;;13.41;82.20
20228;BME280;12195;55.790;37.572;2023-04-26T06:48:44;98274.12;;;13.52;80.74
20228;BME280;12195;55.790;37.572;2023-04-26T06:51:16;98264.95;;;13.46;80.83
20228;BME280;12195;55.790;37.572;2023-04-26T06:53:48;98263.97;;;13.47;81.27
20228;BME280;12195;55.790;37.572;2023-04-26T06:56:23;98278.02;;;13.57;81.07
20228;BME280;12195;55.790;37.572;2023-04-26T06:59:00;98273.70;;;13.66;80.77
20228;BME280;12195;55.790;37.572;2023-04-26T07:01:34;98274.68;;;13.65;80.32
20228;BME280;12195;55.790;37.572;2023-04-26T07:04:07;98278.84;;;13.67;80.00
20228;BME280;12195;55.790;37.572;2023-04-26T07:06:41;98281.48;;;13.67;80.48
20228;BME280;12195;55.790;37.572;2023-04-26T07:09:13;98280.37;;;13.70;81.99
20228;BME280;12195;55.790;37.572;2023-04-26T07:11:46;98275.38;;;13.76;81.48
20228;BME280;12195;55.790;37.572;2023-04-26T07:14:18;98286.34;;;13.81;81.10
20228;BME280;12195;55.790;37.572;2023-04-26T07:16:50;98283.56;;;13.83;81.03
20228;BME280;12195;55.790;37.572;2023-04-26T07:19:23;98284.41;;;13.83;80.53
20228;BME280;12195;55.790;37.572;2023-04-26T07:21:55;98282.61;;;13.84;80.67
20228;BME280;12195;55.790;37.572;2023-04-26T07:24:27;98285.25;;;13.84;80.09
20228;BME280;12195;55.790;37.572;2023-04-26T07:27:00;98289.55;;;13.85;80.24
20228;BME280;12195;55.790;37.572;2023-04-26T07:29:32;98289.69;;;13.83;80.40
20228;BME280;12195;55.790;37.572;2023-04-26T07:32:04;98291.08;;;13.87;81.07
20228;BME280;12195;55.790;37.572;2023-04-26T07:34:37;98293.28;;;13.92;79.86
20228;BME280;12195;55.790;37.572;2023-04-26T07:37:09;98298.02;;;13.98;80.31
20228;BME280;12195;55.790;37.572;2023-04-26T07:39:42;98298.16;;;14.06;80.01
20228;BME280;12195;55.790;37.572;2023-04-26T07:42:14;98296.05;;;14.19;79.95
20228;BME280;12195;55.790;37.572;2023-04-26T07:44:48;98294.83;;;14.32;79.50
20228;BME280;12195;55.790;37.572;2023-04-26T07:47:20;98301.75;;;14.43;78.76
20228;BME280;12195;55.790;37.572;2023-04-26T07:49:53;98303.53;;;14.52;78.93
20228;BME280;12195;55.790;37.572;2023-04-26T07:52:25;98301.30;;;14.57;78.30
20228;BME280;12195;55.790;37.572;2023-04-26T07:54:58;98308.92;;;14.69;78.15
20228;BME280;12195;55.790;37.572;2023-04-26T07:57:31;98299.59;;;14.75;78.07
20228;BME280;12195;55.790;37.572;2023-04-26T08:00:05;98300.97;;;14.79;77.12
20228;BME280;12195;55.790;37.572;2023-04-26T08:02:40;98306.64;;;14.84;77.14
20228;BME280;12195;55.790;37.572;2023-04-26T08:05:15;98306.48;;;14.95;77.89
20228;BME280;12195;55.790;37.572;2023-04-26T08:07:48;98315.05;;;15.06;76.17
20228;BME280;12195;55.790;37.572;2023-04-26T08:10:20;98308.87;;;15.15;76.55
20228;BME280;12195;55.790;37.572;2023-04-26T08:12:53;98310.49;;;15.26;75.41
20228;BME280;12195;55.790;37.572;2023-04-26T08:15:27;98306.86;;;15.27;75.09
20228;BME280;12195;55.790;37.572;2023-04-26T08:18:00;98312.14;;;15.36;75.95
20228;BME280;12195;55.790;37.572;2023-04-26T08:20:33;98267.73;;;15.40;76.42
20228;BME280;12195;55.790;37.572;2023-04-26T08:23:05;98308.49;;;15.64;76.28
20228;BME280;12195;55.790;37.572;2023-04-26T08:25:37;98311.02;;;15.83;75.27
20228;BME280;12195;55.790;37.572;2023-04-26T08:28:09;98322.82;;;15.89;75.27
20228;BME280;12195;55.790;37.572;2023-04-26T08:30:43;98320.25;;;15.97;74.59
20228;BME280;12195;55.790;37.572;2023-04-26T08:33:17;98324.10;;;15.85;73.93
20228;BME280;12195;55.790;37.572;2023-04-26T08:35:49;98326.58;;;15.69;74.23
20228;BME280;12195;55.790;37.572;2023-04-26T08:38:22;98323.09;;;15.68;77.16
20228;BME280;12195;55.790;37.572;2023-04-26T08:40:55;98329.38;;;15.40;74.77
20228;BME280;12195;55.790;37.572;2023-04-26T08:43:29;98329.38;;;15.40;74.77
20228;BME280;12195;55.790;37.572;2023-04-26T08:46:04;98326.92;;;15.29;73.65
20228;BME280;12195;55.790;37.572;2023-04-26T08:48:37;98326.92;;;15.29;73.65
20228;BME280;12195;55.790;37.572;2023-04-26T08:51:11;98336.52;;;15.30;76.72
20228;BME280;12195;55.790;37.572;2023-04-26T08:53:44;98336.52;;;15.30;76.72
20228;BME280;12195;55.790;37.572;2023-04-26T08:56:16;98330.75;;;15.44;74.37
20228;BME280;12195;55.790;37.572;2023-04-26T08:58:49;98333.96;;;15.65;75.50
20228;BME280;12195;55.790;37.572;2023-04-26T09:01:22;98325.38;;;15.81;74.18
20228;BME280;12195;55.790;37.572;2023-04-26T09:03:56;98325.38;;;15.81;74.18
20228;BME280;12195;55.790;37.572;2023-04-26T09:06:32;98329.77;;;15.90;76.22
20228;BME280;12195;55.790;37.572;2023-04-26T09:09:06;98334.59;;;15.94;74.94
20228;BME280;12195;55.790;37.572;2023-04-26T09:11:59;98337.33;;;16.03;73.21
20228;BME280;12195;55.790;37.572;2023-04-26T09:14:33;98338.83;;;16.05;72.90
20228;BME280;12195;55.790;37.572;2023-04-26T09:17:22;98347.39;;;15.99;73.18
20228;BME280;12195;55.790;37.572;2023-04-26T09:19:40;98346.33;;;15.92;73.40
20228;BME280;12195;55.790;37.572;2023-04-26T09:22:29;98349.59;;;15.86;73.10
20228;BME280;12195;55.790;37.572;2023-04-26T09:25:03;98354.59;;;15.89;74.17
20228;BME280;12195;55.790;37.572;2023-04-26T09:27:40;98352.98;;;15.96;74.85
20228;BME280;12195;55.790;37.572;2023-04-26T09:30:16;98330.77;;;15.89;73.43
20228;BME280;12195;55.790;37.572;2023-04-26T09:33:00;98344.31;;;16.04;73.34
20228;BME280;12195;55.790;37.572;2023-04-26T09:35:39;98344.31;;;16.04;73.34
20228;BME280;12195;55.790;37.572;2023-04-26T09:38:13;98350.50;;;16.12;74.40
20228;BME280;12195;55.790;37.572;2023-04-26T09:40:47;98359.80;;;16.16;74.58
20228;BME280;12195;55.790;37.572;2023-04-26T09:43:20;98355.35;;;16.17;72.58
20228;BME280;12195;55.790;37.572;2023-04-26T09:45:54;98359.88;;;16.07;72.91
20228;BME280;12195;55.790;37.572;2023-04-26T09:48:29;98359.88;;;16.07;72.91
20228;BME280;12195;55.790;37.572;2023-04-26T09:53:48;98362.06;;;15.93;74.62
20228;BME280;12195;55.790;37.572;2023-04-26T09:56:20;98366.84;;;15.90;75.49
20228;BME280;12195;55.790;37.572;2023-04-26T09:58:55;98363.11;;;15.83;75.37
20228;BME280;12195;55.790;37.572;2023-04-26T10:01:32;98373.98;;;15.80;74.74
20228;BME280;12195;55.790;37.572;2023-04-26T10:04:06;98373.98;;;15.80;74.74
20228;BME280;12195;55.790;37.572;2023-04-26T10:06:38;98373.27;;;15.88;75.37
20228;BME280;12195;55.790;37.572;2023-04-26T10:09:11;98372.27;;;15.88;74.61
20228;BME280;12195;55.790;37.572;2023-04-26T10:11:43;98376.66;;;15.98;75.47
20228;BME280;12195;55.790;37.572;2023-04-26T10:14:15;98378.03;;;16.02;75.47
20228;BME280;12195;55.790;37.572;2023-04-26T10:16:48;98375.31;;;16.11;74.05
20228;BME280;12195;55.790;37.572;2023-04-26T10:19:21;98367.45;;;16.37;73.03
20228;BME280;12195;55.790;37.572;2023-04-26T10:21:56;98367.45;;;16.37;73.03
20228;BME280;12195;55.790;37.572;2023-04-26T10:24:29;98386.55;;;16.58;73.29
20228;BME280;12195;55.790;37.572;2023-04-26T10:27:02;98382.59;;;16.62;72.34
20228;BME280;12195;55.790;37.572;2023-04-26T10:32:26;98397.59;;;16.53;73.35
20228;BME280;12195;55.790;37.572;2023-04-26T10:35:12;98396.30;;;16.57;73.27
20228;BME280;12195;55.790;37.572;2023-04-26T10:40:39;98404.55;;;16.54;70.39
20228;BME280;12195;55.790;37.572;2023-04-26T10:45:48;98410.19;;;16.07;70.11
20228;BME280;12195;55.790;37.572;2023-04-26T10:48:23;98404.04;;;15.88;73.41
20228;BME280;12195;55.790;37.572;2023-04-26T10:59:11;98401.02;;;16.46;69.42
20228;BME280;12195;55.790;37.572;2023-04-26T11:01:46;98406.91;;;16.57;70.16
20228;BME280;12195;55.790;37.572;2023-04-26T11:04:18;98401.73;;;16.73;69.76
20228;BME280;12195;55.790;37.572;2023-04-26T11:06:52;98399.06;;;17.16;71.16
20228;BME280;12195;55.790;37.572;2023-04-26T11:09:38;98409.94;;;17.64;68.45
20228;BME280;12195;55.790;37.572;2023-04-26T11:12:13;98411.75;;;18.05;66.02
20228;BME280;12195;55.790;37.572;2023-04-26T11:14:46;98410.54;;;18.49;65.02
20228;BME280;12195;55.790;37.572;2023-04-26T11:17:19;98404.39;;;18.89;62.70
20228;BME280;12195;55.790;37.572;2023-04-26T11:19:53;98408.37;;;19.25;61.13
20228;BME280;12195;55.790;37.572;2023-04-26T11:22:26;98410.92;;;19.65;62.21
20228;BME280;12195;55.790;37.572;2023-04-26T11:25:00;98408.33;;;19.87;59.66
20228;BME280;12195;55.790;37.572;2023-04-26T11:27:32;98426.14;;;20.25;54.71
20228;BME280;12195;55.790;37.572;2023-04-26T11:30:05;98416.39;;;20.40;54.65
20228;BME280;12195;55.790;37.572;2023-04-26T11:32:38;98418.11;;;20.56;51.51
20228;BME280;12195;55.790;37.572;2023-04-26T11:35:10;98419.00;;;20.48;49.99
20228;BME280;12195;55.790;37.572;2023-04-26T11:37:44;98419.45;;;20.29;49.16
20228;BME280;12195;55.790;37.572;2023-04-26T11:40:18;98423.25;;;20.35;50.30
20228;BME280;12195;55.790;37.572;2023-04-26T11:42:51;98419.81;;;20.49;49.03
20228;BME280;12195;55.790;37.572;2023-04-26T11:45:24;98430.01;;;20.91;46.90
20228;BME280;12195;55.790;37.572;2023-04-26T11:47:57;98422.00;;;20.91;47.59
20228;BME280;12195;55.790;37.572;2023-04-26T11:50:31;98439.44;;;20.79;46.98
20228;BME280;12195;55.790;37.572;2023-04-26T11:53:06;98426.40;;;20.61;49.45
20228;BME280;12195;55.790;37.572;2023-04-26T11:55:39;98432.08;;;20.58;49.20
20228;BME280;12195;55.790;37.572;2023-04-26T11:58:13;98433.77;;;20.59;49.11
20228;BME280;12195;55.790;37.572;2023-04-26T12:01:01;98449.65;;;20.53;48.69
20228;BME280;12195;55.790;37.572;2023-04-26T12:03:35;98448.48;;;20.24;49.26
20228;BME280;12195;55.790;37.572;2023-04-26T12:06:08;98449.33;;;19.78;50.33
20228;BME280;12195;55.790;37.572;2023-04-26T12:08:40;98458.61;;;19.28;52.00
20228;BME280;12195;55.790;37.572;2023-04-26T12:11:15;98455.77;;;18.81;52.55
20228;BME280;12195;55.790;37.572;2023-04-26T12:13:48;98467.98;;;18.34;53.70
20228;BME280;12195;55.790;37.572;2023-04-26T12:16:21;98470.22;;;18.13;55.42
20228;BME280;12195;55.790;37.572;2023-04-26T12:18:56;98461.06;;;18.08;55.99
20228;BME280;12195;55.790;37.572;2023-04-26T12:21:28;98475.88;;;18.18;54.20
20228;BME280;12195;55.790;37.572;2023-04-26T12:24:01;98464.09;;;18.13;53.33
20228;BME280;12195;55.790;37.572;2023-04-26T12:26:43;98464.84;;;17.97;54.34
20228;BME280;12195;55.790;37.572;2023-04-26T12:29:15;98468.73;;;17.77;54.95
20228;BME280;12195;55.790;37.572;2023-04-26T12:31:48;98470.27;;;17.80;53.58
20228;BME280;12195;55.790;37.572;2023-04-26T12:34:20;98472.47;;;17.92;52.34
20228;BME280;12195;55.790;37.572;2023-04-26T12:36:52;98468.39;;;18.55;51.64
20228;BME280;12195;55.790;37.572;2023-04-26T12:39:26;98472.86;;;20.05;46.67
20228;BME280;12195;55.790;37.572;2023-04-26T12:41:58;98465.10;;;21.25;44.07
20228;BME280;12195;55.790;37.572;2023-04-26T12:44:30;98450.79;;;24.28;39.16
20228;BME280;12195;55.790;37.572;2023-04-26T12:47:02;98448.26;;;27.65;32.56
20228;BME280;12195;55.790;37.572;2023-04-26T12:49:35;98454.02;;;29.82;28.31
20228;BME280;12195;55.790;37.572;2023-04-26T12:52:07;98450.36;;;30.00;27.56
20228;BME280;12195;55.790;37.572;2023-04-26T12:54:40;98451.21;;;30.40;27.21
20228;BME280;12195;55.790;37.572;2023-04-26T12:57:12;98450.48;;;31.28;25.87
20228;BME280;12195;55.790;37.572;2023-04-26T12:59:45;98458.11;;;30.59;26.50
20228;BME280;12195;55.790;37.572;2023-04-26T13:02:18;98451.30;;;30.17;26.75
20228;BME280;12195;55.790;37.572;2023-04-26T13:04:50;98456.59;;;30.91;26.11
20228;BME280;12195;55.790;37.572;2023-04-26T13:07:22;98451.26;;;32.33;25.71
20228;BME280;12195;55.790;37.572;2023-04-26T13:09:55;98467.17;;;32.89;23.36
20228;BME280;12195;55.790;37.572;2023-04-26T13:12:27;98452.55;;;33.53;23.21
20228;BME280;12195;55.790;37.572;2023-04-26T13:15:01;98445.48;;;34.45;21.63
20228;BME280;12195;55.790;37.572;2023-04-26T13:17:41;98439.39;;;34.95;20.82
20228;BME280;12195;55.790;37.572;2023-04-26T13:20:08;98455.55;;;35.31;20.13
20228;BME280;12195;55.790;37.572;2023-04-26T13:22:41;98440.86;;;36.51;18.89
20228;BME280;12195;55.790;37.572;2023-04-26T13:25:13;98463.32;;;37.74;17.73
20228;BME280;12195;55.790;37.572;2023-04-26T13:27:47;98453.41;;;37.78;17.74
20228;BME280;12195;55.790;37.572;2023-04-26T13:30:19;98448.61;;;37.65;17.53
20228;BME280;12195;55.790;37.572;2023-04-26T13:32:51;98456.58;;;37.90;17.86
20228;BME280;12195;55.790;37.572;2023-04-26T13:35:24;98455.73;;;39.07;17.00
20228;BME280;12195;55.790;37.572;2023-04-26T13:37:56;98450.08;;;40.26;15.80
20228;BME280;12195;55.790;37.572;2023-04-26T13:40:28;98449.41;;;40.97;15.10